createdAt,value
2018-07-17T00:02:24.097Z,20.38
2018-07-17T00:04:52.077Z,20.35
2018-07-17T00:07:20.100Z,20.32
2018-07-17T00:09:48.284Z,20.29
2018-07-17T00:12:16.276Z,20.25
2018-07-17T00:14:44.252Z,20.17
2018-07-17T00:17:12.384Z,20.15
2018-07-17T00:19:40.523Z,20.09
2018-07-17T00:22:08.693Z,20.06
2018-07-17T00:24:36.673Z,20.02
2018-07-17T00:27:04.657Z,19.96
2018-07-17T00:29:32.632Z,19.88
2018-07-17T00:32:00.633Z,19.86
2018-07-17T00:34:28.620Z,19.74
2018-07-17T00:36:56.600Z,19.77
2018-07-17T00:39:24.586Z,19.71
2018-07-17T00:41:52.636Z,19.72
2018-07-17T00:44:20.728Z,19.67
2018-07-17T00:46:48.712Z,19.66
2018-07-17T00:49:16.689Z,19.58
2018-07-17T00:51:44.680Z,19.59
2018-07-17T00:54:13.480Z,19.56
2018-07-17T00:56:41.511Z,19.55
2018-07-17T00:59:09.477Z,19.56
2018-07-17T01:01:42.997Z,19.57
2018-07-17T01:04:16.351Z,19.54
2018-07-17T01:06:49.815Z,19.53
2018-07-17T01:09:23.346Z,19.53
2018-07-17T01:11:56.666Z,19.43
2018-07-17T01:14:36.673Z,19.48
2018-07-17T01:17:04.653Z,19.36
2018-07-17T01:19:32.657Z,19.40
2018-07-17T01:22:00.660Z,19.28
2018-07-17T01:24:28.622Z,19.23
2018-07-17T01:26:56.600Z,19.18
2018-07-17T01:29:24.652Z,19.14
2018-07-17T01:31:52.718Z,19.10
2018-07-17T01:34:20.697Z,19.12
2018-07-17T01:36:48.828Z,19.13
2018-07-17T01:39:16.805Z,19.06
2018-07-17T01:41:45.203Z,19.06
2018-07-17T01:44:15.997Z,18.94
2018-07-17T01:46:44.412Z,18.98
2018-07-17T01:49:12.403Z,18.98
2018-07-17T01:51:40.457Z,18.84
2018-07-17T01:54:08.490Z,18.78
2018-07-17T01:56:36.705Z,18.86
2018-07-17T01:59:04.840Z,18.83
2018-07-17T02:01:32.827Z,18.78
2018-07-17T02:04:00.828Z,18.66
2018-07-17T02:06:28.811Z,18.71
2018-07-17T02:08:56.809Z,18.73
2018-07-17T02:11:24.806Z,18.77
2018-07-17T02:13:52.790Z,18.61
2018-07-17T02:16:20.793Z,18.59
2018-07-17T02:18:48.830Z,18.61
2018-07-17T02:21:16.785Z,18.70
2018-07-17T02:23:44.852Z,18.76
2018-07-17T02:26:13.045Z,18.81
2018-07-17T02:28:41.120Z,18.84
2018-07-17T02:31:09.189Z,18.75
2018-07-17T02:33:37.177Z,18.76
2018-07-17T02:36:05.160Z,18.74
2018-07-17T02:38:33.224Z,18.63
2018-07-17T02:41:01.225Z,18.63
2018-07-17T02:43:29.224Z,18.65
2018-07-17T02:45:57.209Z,18.64
2018-07-17T02:48:25.207Z,18.55
2018-07-17T02:50:53.201Z,18.53
2018-07-17T02:53:21.192Z,18.58
2018-07-17T02:55:49.172Z,18.50
2018-07-17T02:58:17.173Z,18.33
2018-07-17T03:00:45.196Z,18.16
2018-07-17T03:03:13.190Z,18.11
2018-07-17T03:05:41.189Z,18.14
2018-07-17T03:08:09.169Z,18.12
2018-07-17T03:10:37.160Z,18.18
2018-07-17T03:13:05.137Z,18.21
2018-07-17T03:15:33.125Z,18.25
2018-07-17T03:18:01.111Z,18.03
2018-07-17T03:20:29.081Z,18.01
2018-07-17T03:22:57.073Z,18.11
2018-07-17T03:25:25.055Z,18.19
2018-07-17T03:27:53.034Z,18.23
2018-07-17T03:30:21.009Z,18.29
2018-07-17T03:32:48.986Z,18.36
2018-07-17T03:35:16.991Z,18.41
2018-07-17T03:37:44.972Z,18.44
2018-07-17T03:40:12.985Z,18.31
2018-07-17T03:42:40.972Z,18.37
2018-07-17T03:45:08.969Z,18.41
2018-07-17T03:47:37.021Z,18.44
2018-07-17T03:50:05.012Z,18.43
2018-07-17T03:52:32.984Z,18.52
2018-07-17T03:55:00.984Z,18.58
2018-07-17T03:57:29.028Z,18.65
2018-07-17T03:59:57.076Z,18.62
2018-07-17T04:02:25.056Z,18.72
2018-07-17T04:04:53.040Z,18.84
2018-07-17T04:07:21.020Z,18.65
2018-07-17T04:09:49.041Z,18.58
2018-07-17T04:12:17.044Z,18.66
2018-07-17T04:14:45.126Z,18.71
2018-07-17T04:17:13.164Z,18.78
2018-07-17T04:19:41.145Z,18.93
2018-07-17T04:22:09.129Z,19.12
2018-07-17T04:24:37.121Z,19.29
2018-07-17T04:27:05.449Z,19.44
2018-07-17T04:29:33.452Z,19.61
2018-07-17T04:32:01.443Z,19.75
2018-07-17T04:34:29.453Z,19.95
2018-07-17T04:36:57.570Z,20.13
2018-07-17T04:39:25.562Z,20.26
2018-07-17T04:41:53.545Z,20.46
2018-07-17T04:44:21.539Z,20.55
2018-07-17T04:46:49.508Z,20.75
2018-07-17T04:49:17.499Z,20.79
2018-07-17T04:51:45.473Z,20.74
2018-07-17T04:54:13.472Z,20.93
2018-07-17T04:56:41.470Z,21.15
2018-07-17T04:59:09.453Z,21.31
2018-07-17T05:01:37.548Z,21.59
2018-07-17T05:04:05.429Z,21.72
2018-07-17T05:06:33.469Z,21.85
2018-07-17T05:09:01.457Z,22.18
2018-07-17T05:11:29.438Z,22.43
2018-07-17T05:13:57.444Z,22.54
2018-07-17T05:16:25.461Z,22.74
2018-07-17T05:18:53.461Z,22.83
2018-07-17T05:21:21.506Z,22.98
2018-07-17T05:23:49.493Z,23.11
2018-07-17T05:26:17.572Z,23.33
2018-07-17T05:28:45.588Z,23.58
2018-07-17T05:31:13.960Z,24.19
2018-07-17T05:33:41.991Z,25.59
2018-07-17T05:36:10.001Z,27.38
2018-07-17T05:38:37.984Z,28.86
2018-07-17T05:41:05.995Z,29.89
2018-07-17T05:43:34.013Z,31.21
2018-07-17T05:46:02.053Z,32.06
2018-07-17T05:48:30.047Z,32.62
2018-07-17T05:50:58.078Z,32.79
2018-07-17T05:53:26.069Z,32.52
2018-07-17T05:55:54.164Z,32.16
2018-07-17T05:58:22.173Z,32.20
2018-07-17T06:00:50.158Z,32.28
2018-07-17T06:03:18.150Z,32.88
2018-07-17T06:05:46.244Z,33.51
2018-07-17T06:08:14.234Z,34.24
2018-07-17T06:10:42.292Z,34.81
2018-07-17T06:13:10.325Z,35.78
2018-07-17T06:15:38.328Z,36.54
2018-07-17T06:18:06.313Z,37.21
2018-07-17T06:20:34.305Z,37.81
2018-07-17T06:23:02.291Z,38.06
2018-07-17T06:25:30.294Z,38.31
2018-07-17T06:27:58.312Z,38.91
2018-07-17T06:30:26.808Z,39.33
2018-07-17T06:32:54.826Z,39.47
2018-07-17T06:35:22.830Z,39.62
2018-07-17T06:37:50.893Z,39.84
2018-07-17T06:40:18.945Z,40.23
2018-07-17T06:42:46.995Z,41.03
2018-07-17T06:45:14.983Z,41.81
2018-07-17T06:47:42.993Z,42.65
2018-07-17T06:50:11.124Z,43.45
2018-07-17T06:52:39.101Z,43.67
2018-07-17T06:55:07.066Z,43.60
2018-07-17T06:57:35.074Z,43.74
2018-07-17T07:00:03.089Z,43.64
2018-07-17T07:02:31.133Z,43.13
2018-07-17T07:04:59.125Z,43.49
2018-07-17T07:07:27.137Z,43.51
2018-07-17T07:09:55.196Z,43.67
2018-07-17T07:12:23.256Z,43.96
2018-07-17T07:14:51.257Z,44.51
2018-07-17T07:17:19.392Z,44.68
2018-07-17T07:19:47.384Z,44.75
2018-07-17T07:22:15.377Z,45.14
2018-07-17T07:24:43.860Z,45.40
2018-07-17T07:27:11.908Z,45.65
2018-07-17T07:29:39.884Z,45.38
2018-07-17T07:32:07.856Z,45.37
2018-07-17T07:34:35.892Z,44.91
2018-07-17T07:37:03.896Z,43.52
2018-07-17T07:39:31.920Z,43.17
2018-07-17T07:41:59.933Z,43.35
2018-07-17T07:44:27.946Z,43.50
2018-07-17T07:46:56.082Z,42.87
2018-07-17T07:49:24.065Z,43.14
2018-07-17T07:51:52.069Z,43.45
2018-07-17T07:54:20.038Z,41.95
2018-07-17T07:56:48.022Z,41.43
2018-07-17T07:59:16.094Z,41.00
2018-07-17T08:01:44.283Z,40.85
2018-07-17T08:04:12.447Z,40.82
2018-07-17T08:06:40.475Z,41.06
2018-07-17T08:09:08.894Z,40.45
2018-07-17T08:11:37.091Z,39.73
2018-07-17T08:14:05.065Z,39.76
2018-07-17T08:16:33.062Z,39.87
2018-07-17T08:19:01.151Z,39.75
2018-07-17T08:21:29.152Z,39.54
2018-07-17T08:23:57.128Z,39.00
2018-07-17T08:26:25.127Z,38.92
2018-07-17T08:28:53.097Z,38.80
2018-07-17T08:31:21.083Z,38.86
2018-07-17T08:33:49.112Z,38.75
2018-07-17T08:36:17.288Z,38.91
2018-07-17T08:38:46.252Z,38.70
2018-07-17T08:41:14.270Z,38.80
2018-07-17T08:43:42.288Z,38.94
2018-07-17T08:46:10.270Z,38.15
2018-07-17T08:48:38.250Z,37.97
2018-07-17T08:51:06.497Z,37.52
2018-07-17T08:53:34.496Z,37.30
2018-07-17T08:56:02.504Z,36.59
2018-07-17T08:58:30.496Z,36.70
2018-07-17T09:00:58.490Z,36.91
2018-07-17T09:03:26.489Z,36.59
2018-07-17T09:05:54.486Z,36.77
2018-07-17T09:08:22.460Z,37.02
2018-07-17T09:10:50.452Z,37.37
2018-07-17T09:13:18.542Z,37.22
2018-07-17T09:15:46.540Z,37.40
2018-07-17T09:18:14.529Z,37.60
2018-07-17T09:20:42.571Z,37.52
2018-07-17T09:23:10.599Z,37.73
2018-07-17T09:25:38.576Z,37.87
2018-07-17T09:28:06.762Z,37.91
2018-07-17T09:30:40.069Z,37.84
2018-07-17T09:33:08.060Z,38.03
2018-07-17T09:35:36.036Z,38.10
2018-07-17T09:38:04.110Z,37.80
2018-07-17T09:40:32.101Z,37.64
2018-07-17T09:43:00.096Z,37.43
2018-07-17T09:45:30.188Z,36.72
2018-07-17T09:47:58.208Z,35.99
2018-07-17T09:50:26.181Z,35.14
2018-07-17T09:52:54.227Z,35.08
2018-07-17T09:55:22.225Z,35.05
2018-07-17T09:57:50.253Z,35.27
2018-07-17T10:01:27.736Z,35.53
2018-07-17T10:03:55.741Z,35.25
2018-07-17T10:06:23.847Z,35.10
2018-07-17T10:08:52.870Z,34.51
2018-07-17T10:11:20.876Z,34.60
2018-07-17T10:13:48.885Z,35.00
2018-07-17T10:16:16.868Z,35.36
2018-07-17T10:18:44.869Z,35.38
2018-07-17T10:21:12.848Z,35.25
2018-07-17T10:23:40.852Z,35.08
2018-07-17T10:26:08.912Z,34.61
2018-07-17T10:28:36.916Z,34.44
2018-07-17T10:31:04.933Z,34.18
2018-07-17T10:33:32.964Z,34.13
2018-07-17T10:36:00.977Z,34.26
2018-07-17T10:38:29.021Z,34.73
2018-07-17T10:40:57.025Z,34.66
2018-07-17T10:43:25.013Z,33.52
2018-07-17T10:45:53.010Z,33.75
2018-07-17T10:48:21.192Z,33.22
2018-07-17T10:50:49.205Z,33.43
2018-07-17T10:53:17.219Z,33.95
2018-07-17T10:55:45.256Z,33.31
2018-07-17T10:58:13.264Z,33.94
2018-07-17T11:00:41.290Z,34.41
2018-07-17T11:03:09.359Z,34.52
2018-07-17T11:05:37.319Z,34.71
2018-07-17T11:08:05.376Z,34.55
2018-07-17T11:10:33.368Z,34.76
2018-07-17T11:13:01.359Z,35.10
2018-07-17T11:15:29.357Z,35.36
2018-07-17T11:17:57.344Z,35.67
2018-07-17T11:20:25.356Z,35.97
2018-07-17T11:22:53.474Z,36.07
2018-07-17T11:25:21.501Z,35.68
2018-07-17T11:27:49.480Z,35.58
2018-07-17T11:30:17.512Z,34.85
2018-07-17T11:32:45.485Z,35.32
2018-07-17T11:35:13.775Z,35.36
2018-07-17T11:37:41.753Z,35.61
2018-07-17T11:40:09.768Z,35.76
2018-07-17T11:42:37.776Z,35.91
2018-07-17T11:45:06.148Z,36.01
2018-07-17T11:47:34.189Z,36.02
2018-07-17T11:50:02.200Z,36.29
2018-07-17T11:52:30.165Z,35.92
2018-07-17T11:54:58.160Z,35.88
2018-07-17T11:57:26.124Z,36.01
2018-07-17T11:59:54.134Z,36.01
2018-07-17T12:02:22.176Z,35.88
2018-07-17T12:04:50.188Z,35.87
2018-07-17T12:07:18.177Z,36.01
2018-07-17T12:09:46.180Z,36.11
2018-07-17T12:12:14.257Z,36.16
2018-07-17T12:14:42.225Z,35.91
2018-07-17T12:17:10.208Z,35.56
2018-07-17T12:19:38.206Z,35.71
2018-07-17T12:22:06.180Z,35.73
2018-07-17T12:24:34.233Z,35.90
2018-07-17T12:27:02.216Z,36.07
2018-07-17T12:29:31.316Z,36.04
2018-07-17T12:31:59.346Z,36.42
2018-07-17T12:34:27.370Z,36.39
2018-07-17T12:36:55.397Z,35.92
2018-07-17T12:39:23.399Z,36.23
2018-07-17T12:41:51.412Z,36.29
2018-07-17T12:44:19.449Z,35.99
2018-07-17T12:46:47.476Z,35.98
2018-07-17T12:49:15.461Z,35.91
2018-07-17T12:51:43.435Z,35.70
2018-07-17T12:54:11.441Z,35.22
2018-07-17T12:56:39.432Z,35.52
2018-07-17T12:59:07.416Z,35.50
2018-07-17T13:01:35.460Z,35.25
2018-07-17T13:04:03.433Z,35.40
2018-07-17T13:06:32.218Z,35.62
2018-07-17T13:09:00.196Z,35.74
2018-07-17T13:11:28.254Z,35.93
2018-07-17T13:13:56.225Z,35.63
2018-07-17T13:16:24.199Z,35.80
2018-07-17T13:18:52.189Z,36.26
2018-07-17T13:21:20.403Z,36.24
2018-07-17T13:23:48.637Z,36.29
2018-07-17T13:26:16.772Z,36.32
2018-07-17T13:28:44.822Z,36.30
2018-07-17T13:31:13.000Z,36.02
2018-07-17T13:33:41.101Z,36.32
2018-07-17T13:36:09.214Z,36.70
2018-07-17T13:38:37.233Z,36.36
2018-07-17T13:41:05.313Z,36.23
2018-07-17T13:43:33.373Z,36.16
2018-07-17T13:46:01.490Z,36.09
2018-07-17T13:48:29.662Z,36.32
2018-07-17T13:50:58.096Z,36.73
2018-07-17T13:53:26.155Z,36.91
2018-07-17T13:55:54.397Z,36.88
2018-07-17T13:58:22.505Z,36.64
2018-07-17T14:00:50.585Z,36.68
2018-07-17T14:03:18.699Z,36.92
2018-07-17T14:05:46.786Z,36.97
2018-07-17T14:08:15.233Z,37.08
2018-07-17T14:10:43.426Z,36.88
2018-07-17T14:13:11.436Z,36.66
2018-07-17T14:15:39.619Z,36.78
2018-07-17T14:18:07.776Z,36.97
2018-07-17T14:20:35.780Z,36.44
2018-07-17T14:23:03.903Z,36.06
2018-07-17T14:25:32.145Z,36.21
2018-07-17T14:28:00.508Z,36.33
2018-07-17T14:30:28.705Z,36.41
2018-07-17T14:32:56.853Z,36.31
2018-07-17T14:35:25.061Z,35.86
2018-07-17T14:37:53.119Z,35.09
2018-07-17T14:40:21.144Z,35.13
2018-07-17T14:42:49.236Z,35.37
2018-07-17T14:45:17.395Z,35.46
2018-07-17T14:47:45.575Z,35.61
2018-07-17T14:50:13.652Z,35.11
2018-07-17T14:52:41.906Z,34.68
2018-07-17T14:55:11.275Z,34.87
2018-07-17T14:57:39.826Z,35.06
2018-07-17T15:00:09.067Z,35.05
2018-07-17T15:02:37.082Z,35.12
2018-07-17T15:05:05.737Z,34.78
2018-07-17T15:07:33.863Z,34.57
2018-07-17T15:10:01.946Z,34.79
2018-07-17T15:12:30.015Z,34.60
2018-07-17T15:14:58.079Z,34.43
2018-07-17T15:17:26.133Z,34.40
2018-07-17T15:19:54.279Z,34.13
2018-07-17T15:22:22.624Z,34.16
2018-07-17T15:24:50.656Z,34.22
2018-07-17T15:27:18.797Z,34.00
2018-07-17T15:29:47.045Z,33.81
2018-07-17T15:32:15.121Z,33.53
2018-07-17T15:34:43.293Z,33.57
2018-07-17T15:37:11.444Z,33.65
2018-07-17T15:39:39.565Z,33.88
2018-07-17T15:42:07.730Z,34.05
2018-07-17T15:44:35.864Z,34.40
2018-07-17T15:47:03.945Z,34.36
2018-07-17T15:49:31.937Z,34.23
2018-07-17T15:52:00.228Z,34.23
2018-07-17T15:54:28.584Z,33.28
2018-07-17T15:56:56.763Z,33.37
2018-07-17T15:59:24.782Z,33.59
2018-07-17T16:01:52.952Z,33.69
2018-07-17T16:04:20.943Z,33.99
2018-07-17T16:06:48.997Z,34.17
2018-07-17T16:09:17.004Z,34.31
2018-07-17T16:11:45.124Z,34.43
2018-07-17T16:14:13.564Z,34.41
2018-07-17T16:16:41.256Z,34.24
2018-07-17T16:19:09.261Z,34.23
2018-07-17T16:21:37.326Z,34.49
2018-07-17T16:24:05.313Z,34.53
2018-07-17T16:26:33.348Z,34.60
2018-07-17T16:29:01.295Z,34.58
2018-07-17T16:31:29.464Z,34.38
2018-07-17T16:33:57.481Z,34.25
2018-07-17T16:36:25.494Z,34.26
2018-07-17T16:38:53.836Z,33.99
2018-07-17T16:41:21.820Z,33.81
2018-07-17T16:43:49.857Z,33.69
2018-07-17T16:46:17.857Z,33.77
2018-07-17T16:48:45.858Z,33.62
2018-07-17T16:51:13.848Z,33.51
2018-07-17T16:53:41.857Z,33.44
2018-07-17T16:56:09.865Z,33.21
2018-07-17T16:58:37.869Z,33.20
2018-07-17T17:01:05.892Z,32.95
2018-07-17T17:03:33.904Z,32.95
2018-07-17T17:06:01.900Z,32.98
2018-07-17T17:08:29.984Z,32.73
2018-07-17T17:10:58.005Z,32.92
2018-07-17T17:13:26.037Z,32.88
2018-07-17T17:15:54.020Z,32.76
2018-07-17T17:18:22.036Z,32.74
2018-07-17T17:20:50.139Z,32.64
2018-07-17T17:23:18.136Z,32.54
2018-07-17T17:25:46.118Z,32.40
2018-07-17T17:28:14.116Z,32.42
2018-07-17T17:30:42.089Z,32.40
2018-07-17T17:33:10.405Z,32.39
2018-07-17T17:35:38.497Z,32.16
2018-07-17T17:38:06.653Z,31.95
2018-07-17T17:40:34.850Z,31.61
2018-07-17T17:43:02.979Z,31.41
2018-07-17T17:45:31.174Z,31.36
2018-07-17T17:48:00.840Z,31.46
2018-07-17T17:50:28.991Z,31.51
2018-07-17T17:52:57.154Z,31.32
2018-07-17T17:55:25.193Z,31.23
2018-07-17T17:57:53.335Z,30.99
2018-07-17T18:00:21.385Z,30.91
2018-07-17T18:02:49.553Z,30.97
2018-07-17T18:05:17.783Z,30.97
2018-07-17T18:07:46.053Z,30.96
2018-07-17T18:10:14.116Z,31.00
2018-07-17T18:12:42.307Z,30.94
2018-07-17T18:15:10.396Z,30.87
2018-07-17T18:17:38.597Z,30.77
2018-07-17T18:20:06.693Z,30.75
2018-07-17T18:22:34.961Z,30.67
2018-07-17T18:25:03.173Z,30.72
2018-07-17T18:27:31.346Z,30.67
2018-07-17T18:29:59.449Z,30.58
2018-07-17T18:32:27.832Z,30.52
2018-07-17T18:34:56.018Z,29.85
2018-07-17T18:37:24.100Z,29.59
2018-07-17T18:39:52.177Z,29.02
2018-07-17T18:42:20.241Z,28.31
2018-07-17T18:44:48.369Z,28.02
2018-07-17T18:47:16.446Z,27.97
2018-07-17T18:49:44.473Z,27.62
2018-07-17T18:52:12.559Z,27.30
2018-07-17T18:54:40.616Z,27.13
2018-07-17T18:57:08.795Z,27.05
2018-07-17T18:59:36.919Z,26.81
2018-07-17T19:02:05.070Z,26.80
2018-07-17T19:04:33.172Z,26.74
2018-07-17T19:07:01.239Z,26.47
2018-07-17T19:09:30.297Z,26.25
2018-07-17T19:11:58.280Z,26.17
2018-07-17T19:14:26.526Z,25.96
2018-07-17T19:16:54.545Z,25.78
2018-07-17T19:19:22.657Z,25.75
2018-07-17T19:21:50.722Z,25.61
2018-07-17T19:24:18.932Z,25.53
2018-07-17T19:26:47.088Z,25.52
2018-07-17T19:29:15.260Z,25.18
2018-07-17T19:31:43.361Z,24.98
2018-07-17T19:34:11.592Z,24.75
2018-07-17T19:36:39.663Z,24.78
2018-07-17T19:39:09.128Z,24.72
2018-07-17T19:41:37.134Z,24.63
2018-07-17T19:44:05.416Z,24.56
2018-07-17T19:46:33.695Z,24.43
2018-07-17T19:49:01.764Z,24.43
2018-07-17T19:51:29.749Z,24.31
2018-07-17T19:53:57.814Z,24.09
2018-07-17T19:56:26.053Z,23.92
2018-07-17T19:58:54.093Z,23.85
2018-07-17T20:01:22.213Z,23.62
2018-07-17T20:03:50.285Z,23.50
2018-07-17T20:06:18.521Z,23.57
2018-07-17T20:08:46.553Z,23.37
2018-07-17T20:11:14.548Z,23.46
2018-07-17T20:13:42.614Z,23.62
2018-07-17T20:16:10.677Z,23.63
2018-07-17T20:18:38.794Z,23.80
2018-07-17T20:21:07.136Z,23.87
2018-07-17T20:23:35.439Z,23.88
2018-07-17T20:26:03.492Z,23.88
2018-07-17T20:28:31.762Z,23.92
2018-07-17T20:31:00.302Z,23.99
2018-07-17T20:33:28.395Z,23.79
2018-07-17T20:35:56.665Z,23.68
2018-07-17T20:38:24.856Z,23.43
2018-07-17T20:40:53.125Z,23.09
2018-07-17T20:43:21.151Z,22.86
2018-07-17T20:45:49.295Z,22.55
2018-07-17T20:48:17.488Z,22.52
2018-07-17T20:50:45.621Z,22.36
2018-07-17T20:53:13.626Z,22.19
2018-07-17T20:55:41.842Z,22.11
2018-07-17T20:58:10.098Z,22.21
2018-07-17T21:00:38.084Z,22.33
2018-07-17T21:03:06.119Z,22.46
2018-07-17T21:05:34.114Z,22.50
2018-07-17T21:08:02.301Z,22.48
2018-07-17T21:10:30.590Z,22.44
2018-07-17T21:12:58.640Z,22.44
2018-07-17T21:15:26.783Z,22.24
2018-07-17T21:17:54.949Z,22.30
2018-07-17T21:20:23.141Z,22.32
2018-07-17T21:22:51.241Z,22.44
2018-07-17T21:25:19.294Z,22.58
2018-07-17T21:27:47.464Z,22.51
2018-07-17T21:30:15.573Z,22.51
2018-07-17T21:32:43.633Z,22.48
2018-07-17T21:35:12.268Z,22.50
2018-07-17T21:37:40.268Z,22.57
2018-07-17T21:42:35.574Z,22.59
2018-07-17T21:45:03.715Z,22.56
2018-07-17T21:47:32.623Z,22.45
2018-07-17T21:50:00.713Z,22.36
2018-07-17T21:52:28.732Z,22.33
2018-07-17T21:54:56.825Z,22.17
2018-07-17T21:57:24.950Z,22.01
2018-07-17T21:59:53.184Z,21.70
2018-07-17T22:02:21.209Z,21.56
2018-07-17T22:04:49.216Z,21.64
2018-07-17T22:07:17.217Z,21.52
2018-07-17T22:09:45.265Z,21.46
2018-07-17T22:12:13.289Z,21.41
2018-07-17T22:14:41.271Z,21.32
2018-07-17T22:17:09.294Z,21.26
2018-07-17T22:19:37.328Z,21.24
2018-07-17T22:22:05.465Z,21.15
2018-07-17T22:24:33.455Z,21.09
2018-07-17T22:27:01.453Z,21.21
2018-07-17T22:29:29.589Z,21.13
2018-07-17T22:31:57.758Z,20.94
2018-07-17T22:34:25.818Z,20.90
2018-07-17T22:36:55.049Z,21.05
2018-07-17T22:39:23.067Z,21.07
2018-07-17T22:41:51.185Z,20.99
2018-07-17T22:44:19.191Z,21.00
2018-07-17T22:46:47.181Z,21.02
2018-07-17T22:49:20.586Z,21.03
2018-07-17T22:51:48.933Z,20.91
2018-07-17T22:54:16.932Z,20.97
2018-07-17T22:56:45.061Z,20.87
2018-07-17T22:59:13.052Z,20.70
2018-07-17T23:01:41.041Z,20.71
2018-07-17T23:04:09.126Z,20.83
2018-07-17T23:06:37.236Z,20.78
2018-07-17T23:09:07.891Z,20.87
2018-07-17T23:11:35.909Z,20.85
2018-07-17T23:14:04.401Z,20.86
2018-07-17T23:16:32.412Z,20.80
2018-07-17T23:19:00.388Z,20.82
2018-07-17T23:21:28.388Z,20.67
2018-07-17T23:23:56.376Z,20.84
2018-07-17T23:26:24.396Z,20.87
2018-07-17T23:28:52.388Z,20.90
2018-07-17T23:31:20.389Z,20.82
2018-07-17T23:33:48.385Z,20.74
2018-07-17T23:36:16.409Z,20.65
2018-07-17T23:38:44.393Z,20.72
2018-07-17T23:41:12.401Z,20.66
2018-07-17T23:43:40.384Z,20.73
2018-07-17T23:46:08.384Z,20.62
2018-07-17T23:48:36.409Z,20.52
2018-07-17T23:51:04.378Z,20.60
2018-07-17T23:53:32.364Z,20.54
2018-07-17T23:56:00.360Z,20.36
2018-07-17T23:58:28.362Z,20.12
